Time;durP1;ratioP1;P1;durP2;ratioP2;P2;SDS_P1;SDS_P2;PMS_P1;PMS_P2;Temp;Humidity;BMP_temperature;BMP_pressure;BME280_temperature;BME280_humidity;BME280_pressure;Samples;Min_cycle;Max_cycle;Signal;HPM_P1;HPM_P2
2023/10/02 00:02:40;;;;;;;986.45;885.63;;;17.50;99.90;;;;;;4877583;29;20048;-93
2023/10/02 00:05:06;;;;;;;960.75;863.10;;;17.50;99.90;;;;;;4895114;29;20063;-93
2023/10/02 00:07:37;;;;;;;935.88;844.30;;;17.50;99.90;;;;;;4877644;29;20045;-93
2023/10/02 00:10:05;;;;;;;970.67;873.85;;;17.50;99.90;;;;;;4880256;29;20461;-93
2023/10/02 00:12:32;;;;;;;967.88;868.92;;;17.50;99.90;;;;;;4883942;29;20497;-93
2023/10/02 00:15:01;;;;;;;948.88;854.78;;;17.50;99.90;;;;;;4877321;29;20056;-93
2023/10/02 00:17:27;;;;;;;991.03;888.10;;;17.40;99.90;;;;;;4875921;29;20061;-93
2023/10/02 00:19:57;;;;;;;946.67;851.97;;;17.40;99.90;;;;;;4876561;29;20037;-93
2023/10/02 00:22:35;;;;;;;951.42;855.42;;;17.40;99.90;;;;;;4864922;29;20044;-93
2023/10/02 00:25:07;;;;;;;956.08;861.25;;;17.30;99.90;;;;;;4876956;29;20045;-93
2023/10/02 00:27:34;;;;;;;959.60;863.58;;;17.30;99.90;;;;;;4879086;29;20044;-93
2023/10/02 00:30:01;;;;;;;954.08;858.15;;;17.30;99.90;;;;;;4869463;29;20049;-93
2023/10/02 00:32:31;;;;;;;970.30;871.38;;;17.20;99.90;;;;;;4875264;29;20056;-93
2023/10/02 00:35:00;;;;;;;952.33;857.17;;;17.20;99.90;;;;;;4871272;29;20056;-93
2023/10/02 00:37:47;;;;;;;963.92;866.58;;;17.20;99.90;;;;;;4879633;29;20049;-93
2023/10/02 00:40:21;;;;;;;943.28;847.45;;;17.20;99.90;;;;;;4882732;29;20116;-94
2023/10/02 00:42:54;;;;;;;934.35;840.35;;;17.20;99.90;;;;;;4879666;29;20063;-92
2023/10/02 00:45:21;;;;;;;950.95;855.05;;;17.20;99.90;;;;;;4879587;29;20041;-93
2023/10/02 00:47:48;;;;;;;965.17;866.65;;;17.20;99.90;;;;;;4876472;29;20061;-93
2023/10/02 00:50:18;;;;;;;967.67;867.85;;;17.20;99.90;;;;;;4874092;29;20049;-93
2023/10/02 00:52:49;;;;;;;976.40;876.00;;;17.20;99.90;;;;;;4868136;29;20493;-93
2023/10/02 00:55:20;;;;;;;964.92;865.45;;;17.20;99.90;;;;;;4874836;29;20499;-92
2023/10/02 00:57:50;;;;;;;930.03;837.80;;;17.20;99.90;;;;;;4868793;29;20198;-93
2023/10/02 01:00:19;;;;;;;966.72;868.65;;;17.20;99.90;;;;;;4879698;29;20052;-93
2023/10/02 01:02:49;;;;;;;957.33;861.55;;;17.10;99.90;;;;;;4894155;29;20037;-93
2023/10/02 01:05:17;;;;;;;995.22;893.05;;;17.10;99.90;;;;;;4877039;29;20053;-93
2023/10/02 01:07:44;;;;;;;987.70;884.60;;;17.10;99.90;;;;;;4872222;29;20512;-94
2023/10/02 01:10:18;;;;;;;965.38;868.33;;;17.10;99.90;;;;;;4879247;29;20049;-93
2023/10/02 01:12:49;;;;;;;995.92;892.70;;;17.00;99.90;;;;;;4877647;29;20108;-93
2023/10/02 01:15:26;;;;;;;982.00;879.90;;;17.00;99.90;;;;;;4870356;29;20048;-93
2023/10/02 01:17:53;;;;;;;976.35;875.30;;;17.00;99.90;;;;;;4879115;29;20048;-93
2023/10/02 01:20:21;;;;;;;982.53;880.38;;;16.90;99.90;;;;;;4875984;29;20053;-96
2023/10/02 01:22:52;;;;;;;1001.78;896.40;;;16.90;99.90;;;;;;4873650;29;20073;-93
2023/10/02 01:25:23;;;;;;;984.15;882.58;;;16.80;99.90;;;;;;4872391;29;20044;-94
2023/10/02 01:27:51;;;;;;;949.22;853.75;;;16.80;99.90;;;;;;4863248;29;20147;-94
2023/10/02 01:30:20;;;;;;;951.72;855.70;;;16.80;99.90;;;;;;4869006;29;20052;-94
2023/10/02 01:33:06;;;;;;;939.40;846.60;;;16.80;99.90;;;;;;4863975;29;20244;-93
2023/10/02 01:35:34;;;;;;;961.17;864.70;;;16.80;99.90;;;;;;4885327;29;20037;-93
2023/10/02 01:38:00;;;;;;;945.13;850.53;;;16.80;99.90;;;;;;4878409;29;20414;-93
2023/10/02 01:40:35;;;;;;;974.95;875.30;;;16.80;99.90;;;;;;4876484;29;20053;-93
2023/10/02 01:43:12;;;;;;;975.45;875.05;;;16.80;99.90;;;;;;4874037;29;20068;-93
2023/10/02 01:45:42;;;;;;;993.78;889.15;;;16.80;99.90;;;;;;4875545;29;20068;-94
2023/10/02 01:51:35;;;;;;;962.50;865.33;;;16.70;99.90;;;;;;4881989;29;20381;-94
2023/10/02 01:53:58;;;;;;;987.78;885.60;;;16.70;99.90;;;;;;4893589;29;20064;-94
2023/10/02 01:56:30;;;;;;;964.35;867.75;;;16.70;99.90;;;;;;4875255;29;20061;-94
2023/10/02 01:59:09;;;;;;;959.72;862.58;;;16.70;99.90;;;;;;4872688;29;20045;-94
2023/10/02 02:01:46;;;;;;;977.72;878.47;;;16.70;99.90;;;;;;4877341;29;20045;-94
2023/10/02 02:04:14;;;;;;;955.25;857.75;;;16.70;99.90;;;;;;4878652;29;20063;-94
2023/10/02 02:06:51;;;;;;;976.63;877.95;;;16.70;99.90;;;;;;4877714;29;20102;-93
2023/10/02 02:09:25;;;;;;;951.38;856.10;;;16.70;99.90;;;;;;4877912;29;20125;-93
2023/10/02 02:12:07;;;;;;;969.75;870.42;;;16.70;99.90;;;;;;4877385;29;20326;-94
2023/10/02 02:14:41;;;;;;;980.30;877.17;;;16.70;99.90;;;;;;4878026;29;20048;-94
2023/10/02 02:17:10;;;;;;;998.45;892.60;;;16.70;99.90;;;;;;4865074;29;20045;-93
2023/10/02 02:19:37;;;;;;;963.28;862.92;;;16.60;99.90;;;;;;4878347;29;20451;-93
2023/10/02 02:22:03;;;;;;;990.65;884.58;;;16.60;99.90;;;;;;4878732;29;20112;-94
2023/10/02 02:24:34;;;;;;;985.13;882.10;;;16.60;99.90;;;;;;4881399;29;20059;-94
2023/10/02 02:27:04;;;;;;;974.72;873.85;;;16.60;99.90;;;;;;4881550;29;20127;-94
2023/10/02 02:29:30;;;;;;;990.38;883.53;;;16.60;99.90;;;;;;4878746;29;20060;-94
2023/10/02 02:32:00;;;;;;;984.10;880.53;;;16.60;99.90;;;;;;4888515;29;20077;-94
2023/10/02 02:34:26;;;;;;;975.60;872.03;;;16.50;99.90;;;;;;4878832;29;20615;-94
2023/10/02 02:36:54;;;;;;;983.38;880.20;;;16.50;99.90;;;;;;4873510;29;20179;-94
2023/10/02 02:39:22;;;;;;;970.08;870.63;;;16.50;99.90;;;;;;4878845;29;20164;-94
2023/10/02 02:42:08;;;;;;;977.78;874.95;;;16.40;99.90;;;;;;4874755;29;20045;-94
2023/10/02 02:44:39;;;;;;;985.85;882.10;;;16.40;99.90;;;;;;4881514;29;20132;-94
2023/10/02 02:47:08;;;;;;;976.13;875.95;;;16.30;99.90;;;;;;4881326;29;20081;-94
2023/10/02 02:49:51;;;;;;;981.13;880.58;;;16.30;99.90;;;;;;4877973;29;20112;-93
2023/10/02 02:52:24;;;;;;;968.45;869.10;;;16.30;99.90;;;;;;4870269;29;20048;-94
2023/10/02 02:54:58;;;;;;;960.78;862.50;;;16.30;99.90;;;;;;4881057;29;20376;-94
2023/10/02 02:57:25;;;;;;;932.20;839.95;;;16.30;99.90;;;;;;4877804;29;20077;-94
2023/10/02 03:00:29;;;;;;;940.08;844.60;;;16.20;99.90;;;;;;4876976;29;20048;-93
2023/10/02 03:02:45;;;;;;;910.83;823.10;;;16.20;99.90;;;;;;4896656;29;20132;-94
2023/10/02 03:05:13;;;;;;;930.78;838.60;;;16.20;99.90;;;;;;4882756;29;20045;-94
2023/10/02 03:07:40;;;;;;;940.83;847.78;;;16.20;99.90;;;;;;4894557;29;20049;-93
2023/10/02 03:10:16;;;;;;;934.90;843.05;;;16.10;99.90;;;;;;4878066;29;20485;-93
2023/10/02 03:12:45;;;;;;;1014.58;904.22;;;16.20;99.90;;;;;;4876784;29;20157;-94
2023/10/02 03:15:13;;;;;;;948.55;852.75;;;16.10;99.90;;;;;;4871773;29;20053;-94
2023/10/02 03:17:41;;;;;;;956.40;861.50;;;16.20;99.90;;;;;;4878042;29;20045;-93
2023/10/02 03:20:22;;;;;;;957.40;860.05;;;16.10;99.90;;;;;;4877720;29;20128;-94
2023/10/02 03:22:55;;;;;;;928.88;837.63;;;16.20;99.90;;;;;;4879369;29;20053;-93
2023/10/02 03:25:27;;;;;;;936.00;843.80;;;16.10;99.90;;;;;;4881032;29;20058;-94
2023/10/02 03:27:55;;;;;;;942.85;848.08;;;16.10;99.90;;;;;;4880789;29;20048;-96
2023/10/02 03:30:39;;;;;;;1037.90;910.05;;;16.20;99.90;;;;;;4880880;29;20056;-94
2023/10/02 03:33:20;;;;;;;956.58;859.58;;;16.10;99.90;;;;;;4896449;29;20116;-94
2023/10/02 03:36:08;;;;;;;1040.45;924.58;;;16.10;99.90;;;;;;4865105;29;20061;-94
2023/10/02 03:38:43;;;;;;;1039.18;909.83;;;16.20;99.90;;;;;;4875800;29;20430;-94
2023/10/02 03:41:10;;;;;;;1016.15;904.25;;;16.10;99.90;;;;;;4880824;29;20052;-94
2023/10/02 03:43:43;;;;;;;943.10;848.80;;;16.10;99.90;;;;;;4879973;29;20047;-94
2023/10/02 03:46:23;;;;;;;1009.25;900.22;;;16.10;99.90;;;;;;4877562;29;20053;-93
2023/10/02 03:48:58;;;;;;;928.08;836.63;;;16.10;99.90;;;;;;4896206;29;20136;-93
2023/10/02 03:51:36;;;;;;;967.63;867.10;;;16.10;99.90;;;;;;4874788;29;20105;-94
2023/10/02 03:54:17;;;;;;;926.85;835.53;;;16.00;99.90;;;;;;4877587;29;20109;-94
2023/10/02 03:56:48;;;;;;;933.20;841.50;;;16.00;99.90;;;;;;4880282;29;20056;-94
2023/10/02 03:59:21;;;;;;;1004.63;897.72;;;16.00;99.90;;;;;;4896007;29;20044;-94
2023/10/02 04:01:48;;;;;;;912.95;824.33;;;16.00;99.90;;;;;;4876776;29;20412;-94
2023/10/02 04:06:42;;;;;;;924.95;833.28;;;16.00;99.90;;;;;;4895779;29;20135;-94
2023/10/02 04:09:14;;;;;;;932.22;840.72;;;16.00;99.90;;;;;;4879571;29;20048;-94
2023/10/02 04:11:42;;;;;;;995.70;888.97;;;16.10;99.90;;;;;;4876815;29;20051;-94
2023/10/02 04:14:31;;;;;;;1035.15;920.03;;;16.00;99.90;;;;;;4877554;29;20052;-94
2023/10/02 04:19:49;;;;;;;1038.57;913.30;;;16.10;99.90;;;;;;4895426;29;20500;-94
2023/10/02 04:22:19;;;;;;;943.05;849.70;;;16.10;99.90;;;;;;4876684;29;20056;-94
2023/10/02 04:25:03;;;;;;;917.70;826.63;;;16.10;99.90;;;;;;4874994;29;20076;-94
2023/10/02 04:28:01;;;;;;;947.45;851.88;;;16.10;99.90;;;;;;4876719;29;20053;-94
2023/10/02 04:30:24;;;;;;;934.35;842.38;;;16.10;99.90;;;;;;4887696;29;20053;-93
2023/10/02 04:32:51;;;;;;;961.90;864.05;;;16.10;99.90;;;;;;4876018;29;20359;-94
2023/10/02 04:38:07;;;;;;;954.53;858.90;;;16.10;99.90;;;;;;4895091;29;20049;-94
2023/10/02 04:40:49;;;;;;;1001.10;896.17;;;16.10;99.90;;;;;;4876393;29;20040;-94
2023/10/02 04:43:23;;;;;;;1002.30;894.20;;;16.10;99.90;;;;;;4874458;29;20117;-94
2023/10/02 04:46:02;;;;;;;1015.28;902.78;;;16.00;99.90;;;;;;4878614;29;20045;-93
2023/10/02 04:48:38;;;;;;;988.72;882.80;;;16.10;99.90;;;;;;4875952;29;20080;-94
2023/10/02 04:51:08;;;;;;;971.67;870.47;;;16.10;99.90;;;;;;4877669;29;20288;-94
2023/10/02 04:53:35;;;;;;;920.50;829.13;;;16.10;99.90;;;;;;4874999;29;20037;-94
2023/10/02 04:56:07;;;;;;;947.58;850.90;;;16.10;99.90;;;;;;4874199;29;20548;-94
2023/10/02 04:58:44;;;;;;;;;;;16.10;99.90;;;;;;4842672;29;20561;-94
2023/10/02 05:01:24;;;;;;;1056.00;914.63;;;16.10;99.90;;;;;;4858699;29;19959;-94
2023/10/02 05:03:53;;;;;;;994.53;888.50;;;16.10;99.90;;;;;;4844916;29;20044;-93
2023/10/02 05:06:44;;;;;;;955.22;859.03;;;16.20;99.90;;;;;;4845398;29;20123;-94
2023/10/02 05:11:56;;;;;;;931.17;838.47;;;16.20;99.90;;;;;;4860426;29;20104;-94
2023/10/02 05:14:28;;;;;;;925.75;832.72;;;16.20;99.90;;;;;;4829871;29;20045;-93
2023/10/02 05:17:41;;;;;;;937.97;844.78;;;16.20;99.90;;;;;;4844908;29;20056;-94
2023/10/02 05:20:01;;;;;;;940.13;845.50;;;16.20;99.90;;;;;;4859907;29;20057;-94
2023/10/02 05:22:30;;;;;;;917.92;829.85;;;16.20;99.90;;;;;;4842100;29;20044;-94
2023/10/02 05:24:59;;;;;;;935.40;842.33;;;16.10;99.90;;;;;;4844795;29;20108;-94
2023/10/02 05:27:31;;;;;;;911.10;821.47;;;16.10;99.90;;;;;;4844853;29;20052;-94
2023/10/02 05:29:58;;;;;;;958.13;860.05;;;16.10;99.90;;;;;;4844732;29;20489;-94
2023/10/02 05:32:29;;;;;;;929.03;839.58;;;16.10;99.90;;;;;;4844428;29;20128;-94
2023/10/02 05:35:04;;;;;;;953.45;854.45;;;16.00;99.90;;;;;;4844721;29;20049;-94
2023/10/02 05:37:31;;;;;;;953.97;856.92;;;16.10;99.90;;;;;;4844623;29;20069;-94
2023/10/02 05:48:27;;;;;;;951.13;856.47;;;16.00;99.90;;;;;;4859922;29;20084;-95
2023/10/02 05:50:56;;;;;;;951.78;855.72;;;16.00;99.90;;;;;;4831931;29;20041;-95
2023/10/02 05:53:29;;;;;;;967.45;868.92;;;15.90;99.90;;;;;;4845169;29;20552;-94
2023/10/02 05:55:57;;;;;;;1065.63;934.42;;;16.00;99.90;;;;;;4844370;29;20059;-94
2023/10/02 05:58:30;;;;;;;1067.95;938.28;;;16.00;99.90;;;;;;4876051;29;20055;-94
2023/10/02 06:01:05;;;;;;;1022.47;910.15;;;16.00;99.90;;;;;;4879063;29;20497;-95
2023/10/02 06:03:34;;;;;;;1027.53;909.30;;;16.00;99.90;;;;;;4880659;29;20067;-95
2023/10/02 06:06:21;;;;;;;1017.65;907.30;;;16.00;99.90;;;;;;4892442;29;20048;-95
2023/10/02 06:08:54;;;;;;;953.13;858.42;;;16.10;99.90;;;;;;4890574;29;20096;-94
2023/10/02 06:11:33;;;;;;;960.53;862.53;;;16.20;99.90;;;;;;4897696;29;20144;-95
2023/10/02 06:14:10;;;;;;;935.22;842.85;;;16.20;99.90;;;;;;4880531;29;20059;-94
2023/10/02 06:16:39;;;;;;;945.88;852.05;;;16.20;99.90;;;;;;4886348;29;20047;-94
2023/10/02 06:19:07;;;;;;;941.17;846.83;;;16.20;99.90;;;;;;4882867;29;20052;-94
2023/10/02 06:21:45;;;;;;;943.92;850.78;;;16.30;99.90;;;;;;4884488;29;20076;-94
2023/10/02 06:24:14;;;;;;;910.50;822.28;;;16.30;99.90;;;;;;4877024;29;20045;-94
2023/10/02 06:26:52;;;;;;;941.05;847.85;;;16.30;99.90;;;;;;4883619;29;20131;-96
2023/10/02 06:29:22;;;;;;;911.42;823.10;;;16.30;99.90;;;;;;4878818;29;20073;-95
2023/10/02 06:32:05;;;;;;;929.10;836.00;;;16.30;99.90;;;;;;4877499;29;20056;-95
2023/10/02 06:34:37;;;;;;;921.30;832.20;;;16.30;99.90;;;;;;4879909;29;20106;-93
2023/10/02 06:37:08;;;;;;;928.83;838.73;;;16.40;99.90;;;;;;4889835;29;20144;-94
2023/10/02 06:39:35;;;;;;;931.63;841.50;;;16.30;99.90;;;;;;4867902;29;20331;-94
2023/10/02 06:42:05;;;;;;;911.08;822.78;;;16.30;99.90;;;;;;4878881;29;20037;-94
2023/10/02 06:44:35;;;;;;;931.80;839.95;;;16.30;99.90;;;;;;4875059;29;20103;-93
2023/10/02 06:47:04;;;;;;;935.30;843.78;;;16.40;99.90;;;;;;4879020;29;20548;-94
2023/10/02 06:49:30;;;;;;;935.72;845.83;;;16.40;99.90;;;;;;4873163;29;20104;-94
2023/10/02 06:52:11;;;;;;;932.85;842.30;;;16.40;99.90;;;;;;4878626;29;20531;-94
2023/10/02 06:54:43;;;;;;;914.20;826.33;;;16.50;99.90;;;;;;4877977;29;20052;-94
2023/10/02 06:57:13;;;;;;;955.38;860.80;;;16.50;99.90;;;;;;4878632;29;20136;-92
2023/10/02 06:59:41;;;;;;;927.53;838.80;;;16.50;99.90;;;;;;4892328;29;20060;-94
2023/10/02 07:02:09;;;;;;;953.05;860.70;;;16.50;99.90;;;;;;4874413;29;20079;-93
2023/10/02 07:04:36;;;;;;;943.83;851.42;;;16.50;99.90;;;;;;4876100;29;20868;-94
2023/10/02 07:07:03;;;;;;;922.35;833.33;;;16.60;99.90;;;;;;4878313;29;20049;-94
2023/10/02 07:09:34;;;;;;;934.47;844.20;;;16.60;99.90;;;;;;4876607;29;20055;-95
2023/10/02 07:12:08;;;;;;;937.45;845.72;;;16.60;99.90;;;;;;4878525;29;20085;-94
2023/10/02 07:14:36;;;;;;;914.20;829.20;;;16.70;99.90;;;;;;4879210;29;20386;-95
2023/10/02 07:17:12;;;;;;;919.33;832.72;;;16.70;99.90;;;;;;4878393;29;20052;-94
2023/10/02 07:19:39;;;;;;;938.75;848.30;;;16.80;99.90;;;;;;4894873;29;20048;-94
2023/10/02 07:22:16;;;;;;;930.97;841.63;;;16.90;99.90;;;;;;4878750;29;20044;-94
2023/10/02 07:24:45;;;;;;;923.47;835.53;;;16.90;99.90;;;;;;4880778;29;20052;-94
2023/10/02 07:27:22;;;;;;;938.58;847.78;;;17.00;99.90;;;;;;4893351;29;20044;-95
2023/10/02 07:29:51;;;;;;;928.78;838.72;;;17.00;99.90;;;;;;4880648;29;20056;-95
2023/10/02 07:32:19;;;;;;;928.15;838.20;;;17.10;99.90;;;;;;4883195;29;20374;-95
2023/10/02 07:34:46;;;;;;;964.58;868.83;;;17.20;99.90;;;;;;4879827;29;20052;-95
2023/10/02 07:37:13;;;;;;;959.78;864.78;;;17.20;99.90;;;;;;4876285;29;20105;-94
2023/10/02 07:39:39;;;;;;;935.13;844.25;;;17.30;99.90;;;;;;4876830;29;20378;-95
2023/10/02 07:42:06;;;;;;;952.55;856.42;;;17.40;99.90;;;;;;4880695;29;20113;-95
2023/10/02 07:44:38;;;;;;;939.92;848.70;;;17.50;99.90;;;;;;4880345;29;20045;-95
2023/10/02 07:47:10;;;;;;;919.50;831.37;;;17.60;99.90;;;;;;4877774;29;20396;-95
2023/10/02 07:49:38;;;;;;;963.85;869.00;;;17.70;99.90;;;;;;4895403;29;20515;-96
2023/10/02 07:52:07;;;;;;;903.05;817.65;;;17.70;99.90;;;;;;4883000;29;20056;-95
2023/10/02 07:54:44;;;;;;;911.97;824.90;;;17.90;99.90;;;;;;4879507;29;20049;-95
2023/10/02 07:57:13;;;;;;;913.08;824.08;;;17.90;99.90;;;;;;4873452;29;20056;-93
2023/10/02 07:59:49;;;;;;;919.35;828.70;;;18.00;99.90;;;;;;4876348;29;20511;-93
2023/10/02 08:02:21;;;;;;;925.75;836.83;;;18.00;99.90;;;;;;4896852;29;20072;-94
2023/10/02 08:04:49;;;;;;;873.28;790.70;;;18.10;99.90;;;;;;4877979;29;20045;-94
2023/10/02 08:07:15;;;;;;;893.15;804.55;;;18.10;99.90;;;;;;4878841;29;20148;-94
2023/10/02 08:09:47;;;;;;;911.65;822.10;;;18.20;99.90;;;;;;4875470;29;20041;-95
2023/10/02 08:12:29;;;;;;;889.97;801.72;;;18.20;99.90;;;;;;4877199;29;20064;-93
2023/10/02 08:14:58;;;;;;;882.63;793.78;;;18.20;99.90;;;;;;4874481;29;20044;-94
2023/10/02 08:18:00;;;;;;;912.35;818.47;;;18.30;99.90;;;;;;4873551;29;20045;-93
2023/10/02 08:20:16;;;;;;;901.70;807.08;;;18.30;99.90;;;;;;4895676;29;20048;-94
2023/10/02 08:22:51;;;;;;;884.00;795.50;;;18.40;99.90;;;;;;4879313;29;20036;-94
2023/10/02 08:25:17;;;;;;;842.88;760.15;;;18.40;99.90;;;;;;4876718;29;20040;-94
2023/10/02 08:27:44;;;;;;;863.35;780.17;;;18.50;99.90;;;;;;4866393;29;20396;-94
2023/10/02 08:30:27;;;;;;;876.53;791.75;;;18.50;99.90;;;;;;4880708;29;20464;-94
2023/10/02 08:33:08;;;;;;;888.83;798.92;;;18.60;99.90;;;;;;4879300;29;20041;-94
2023/10/02 08:35:37;;;;;;;852.33;771.55;;;18.60;99.90;;;;;;4879541;29;20041;-94
2023/10/02 08:38:07;;;;;;;861.10;777.58;;;18.70;99.90;;;;;;4878214;29;20060;-93
2023/10/02 08:40:33;;;;;;;868.22;784.75;;;18.80;99.90;;;;;;4888796;29;20124;-93
2023/10/02 08:43:05;;;;;;;828.92;752.28;;;18.90;99.90;;;;;;4876047;29;20049;-93
2023/10/02 08:45:33;;;;;;;811.22;735.58;;;19.00;99.90;;;;;;4875716;29;20037;-93
2023/10/02 08:48:07;;;;;;;850.35;769.55;;;19.10;99.90;;;;;;4876361;29;20049;-93
2023/10/02 08:50:34;;;;;;;813.70;734.28;;;19.20;99.90;;;;;;4863922;29;20037;-93
2023/10/02 08:53:04;;;;;;;841.50;758.90;;;19.30;99.90;;;;;;4873052;29;20096;-93
2023/10/02 08:58:19;;;;;;;896.30;807.05;;;19.60;99.90;;;;;;4892795;29;20064;-92
2023/10/02 09:03:41;;;;;;;883.20;789.13;;;19.50;99.90;;;;;;4888080;29;20067;-92
2023/10/02 09:06:35;;;;;;;886.50;794.88;;;19.40;99.90;;;;;;4861588;29;20365;-91
2023/10/02 09:09:15;;;;;;;913.35;814.28;;;19.50;99.90;;;;;;4876419;29;20067;-92
2023/10/02 09:11:42;;;;;;;898.40;799.17;;;19.40;99.90;;;;;;4872105;29;20576;-94
2023/10/02 09:14:21;;;;;;;894.05;796.55;;;19.40;99.90;;;;;;4872639;29;20086;-94
2023/10/02 09:17:07;;;;;;;866.72;777.35;;;19.40;99.90;;;;;;4881086;29;20052;-94
2023/10/02 09:19:34;;;;;;;852.40;766.55;;;19.40;99.90;;;;;;4889258;29;20044;-95
2023/10/02 09:22:07;;;;;;;855.97;770.00;;;19.60;99.90;;;;;;4882544;29;20063;-93
2023/10/02 09:24:34;;;;;;;;;;;19.80;99.90;;;;;;4870599;29;20049;-93
2023/10/02 09:27:23;;;;;;;856.80;773.10;;;20.00;99.90;;;;;;4875130;29;20291;-93
2023/10/02 09:30:15;;;;;;;871.85;780.05;;;20.10;99.90;;;;;;4879302;29;20056;-93
2023/10/02 09:32:47;;;;;;;888.70;794.20;;;20.30;99.90;;;;;;4894952;29;20056;-93
2023/10/02 09:35:22;;;;;;;912.60;820.42;;;20.40;99.90;;;;;;4878328;29;20089;-92
2023/10/02 09:37:55;;;;;;;930.10;831.72;;;20.40;99.90;;;;;;4884383;29;20045;-93
2023/10/02 09:40:24;;;;;;;918.97;822.15;;;20.40;99.90;;;;;;4866577;29;20049;-92
2023/10/02 09:43:00;;;;;;;897.83;803.25;;;20.40;99.90;;;;;;4875461;29;20053;-93
2023/10/02 09:45:35;;;;;;;910.60;814.83;;;20.40;99.90;;;;;;4868965;29;20052;-92
2023/10/02 09:48:05;;;;;;;916.95;819.35;;;20.40;99.90;;;;;;4863251;29;20450;-92
2023/10/02 09:50:41;;;;;;;909.22;813.97;;;20.30;99.90;;;;;;4883303;29;20045;-93
2023/10/02 09:53:12;;;;;;;902.80;806.85;;;20.30;99.90;;;;;;4872991;29;20048;-95
2023/10/02 09:55:42;;;;;;;904.25;809.17;;;20.20;99.90;;;;;;4894139;29;20076;-95
2023/10/02 09:58:28;;;;;;;918.35;819.85;;;20.10;99.90;;;;;;4893178;29;20064;-95
2023/10/02 10:01:37;;;;;;;895.47;799.67;;;20.00;99.90;;;;;;4866145;29;20090;-94
2023/10/02 10:04:30;;;;;;;898.28;804.45;;;20.20;99.90;;;;;;4892539;29;20112;-93
2023/10/02 10:07:08;;;;;;;918.53;823.95;;;20.30;99.90;;;;;;4892973;29;20095;-91
2023/10/02 10:09:50;;;;;;;925.83;828.90;;;20.50;99.90;;;;;;4871402;29;20493;-91
2023/10/02 10:12:50;;;;;;;907.28;812.80;;;20.50;99.90;;;;;;4870829;29;20127;-91
2023/10/02 10:15:31;;;;;;;913.47;816.85;;;20.60;99.90;;;;;;4886672;29;20061;-91
2023/10/02 10:18:12;;;;;;;864.97;774.30;;;20.80;99.90;;;;;;4875176;29;20104;-93
2023/10/02 10:20:38;;;;;;;857.77;767.80;;;20.70;99.90;;;;;;4888823;29;20041;-94
2023/10/02 10:23:34;;;;;;;909.33;812.22;;;20.70;99.90;;;;;;4876841;29;20313;-93
2023/10/02 10:26:07;;;;;;;883.47;789.25;;;20.70;99.90;;;;;;4869771;29;20073;-93
2023/10/02 10:28:33;;;;;;;;;;;20.80;99.90;;;;;;4871131;29;20045;-92
2023/10/02 10:31:01;;;;;;;885.00;790.70;;;20.90;99.90;;;;;;4867619;29;19981;-93
2023/10/02 10:33:27;;;;;;;873.22;781.83;;;21.00;99.90;;;;;;4875616;29;20120;-93
2023/10/02 10:35:55;;;;;;;896.05;799.08;;;21.00;99.90;;;;;;4887160;29;20529;-93
2023/10/02 10:38:25;;;;;;;886.67;792.65;;;21.00;99.90;;;;;;4868765;29;20441;-93
2023/10/02 10:40:54;;;;;;;889.13;792.97;;;21.10;99.90;;;;;;4893821;29;20040;-93
2023/10/02 10:43:26;;;;;;;829.05;744.33;;;21.20;99.90;;;;;;4865889;29;20072;-92
2023/10/02 10:45:54;;;;;;;896.20;799.40;;;21.20;99.90;;;;;;4890060;29;20160;-93
2023/10/02 10:48:22;;;;;;;906.45;807.60;;;21.20;99.90;;;;;;4867718;29;20104;-92
2023/10/02 10:50:59;;;;;;;838.03;751.75;;;21.30;99.90;;;;;;4879562;29;20090;-93
2023/10/02 10:53:26;;;;;;;848.38;760.55;;;21.40;99.90;;;;;;4869387;29;20076;-93
2023/10/02 10:55:59;;;;;;;738.28;667.58;;;21.40;99.90;;;;;;4878851;29;20072;-92
2023/10/02 10:58:31;;;;;;;755.97;678.03;;;21.30;99.90;;;;;;4869526;29;20060;-93
2023/10/02 11:00:58;;;;;;;802.03;720.47;;;21.20;99.90;;;;;;4883261;29;20057;-92
2023/10/02 11:03:26;;;;;;;822.65;738.97;;;21.10;99.90;;;;;;4868566;29;20044;-93
2023/10/02 11:06:09;;;;;;;849.03;761.60;;;21.00;99.90;;;;;;4879121;29;20053;-96
2023/10/02 11:09:11;;;;;;;881.42;788.53;;;21.00;99.90;;;;;;4880166;29;20057;-93
2023/10/02 11:11:54;;;;;;;867.65;778.00;;;20.90;99.90;;;;;;4868802;29;20064;-95
2023/10/02 11:14:34;;;;;;;872.40;782.65;;;20.90;99.90;;;;;;4874893;29;20059;-94
2023/10/02 11:17:04;;;;;;;880.45;789.25;;;20.90;99.90;;;;;;4877756;29;20093;-95
2023/10/02 11:22:03;;;;;;;864.67;776.83;;;21.00;99.90;;;;;;4894833;29;20040;-94
2023/10/02 11:24:29;;;;;;;890.90;798.88;;;21.00;99.90;;;;;;4896676;29;20131;-93
2023/10/02 11:27:06;;;;;;;898.97;806.42;;;21.00;99.90;;;;;;4880886;29;20136;-93
2023/10/02 11:29:40;;;;;;;910.88;816.25;;;21.00;99.90;;;;;;4874289;29;20057;-93
2023/10/02 11:32:19;;;;;;;898.65;804.33;;;21.10;99.90;;;;;;4873550;29;20052;-93
2023/10/02 11:34:46;;;;;;;897.35;805.90;;;21.20;99.90;;;;;;4868474;29;20528;-93
2023/10/02 11:37:13;;;;;;;907.78;814.13;;;21.20;99.90;;;;;;4893571;29;20131;-93
2023/10/02 11:39:39;;;;;;;916.72;822.17;;;21.30;99.90;;;;;;4880921;29;20048;-94
2023/10/02 11:42:06;;;;;;;872.42;785.13;;;21.40;99.90;;;;;;4881561;29;20633;-94
2023/10/02 11:44:32;;;;;;;877.25;788.33;;;21.50;99.90;;;;;;4881203;29;20100;-94
2023/10/02 11:46:59;;;;;;;872.75;786.63;;;21.50;99.90;;;;;;4880871;29;20055;-93
2023/10/02 11:49:31;;;;;;;861.47;772.90;;;21.70;99.90;;;;;;4878870;29;20056;-94
2023/10/02 11:52:03;;;;;;;834.17;749.13;;;21.70;99.90;;;;;;4874765;29;20462;-93
2023/10/02 11:54:36;;;;;;;848.05;761.97;;;21.70;99.90;;;;;;4874084;29;20057;-95
2023/10/02 11:57:08;;;;;;;800.28;721.20;;;21.70;99.90;;;;;;4878842;29;20084;-94
2023/10/02 11:59:35;;;;;;;780.45;702.17;;;21.80;99.90;;;;;;4879011;29;20127;-94
2023/10/02 12:02:04;;;;;;;829.30;743.75;;;21.80;99.90;;;;;;4882436;29;20123;-94
2023/10/02 12:04:31;;;;;;;829.88;747.33;;;21.80;99.90;;;;;;4880640;29;20052;-94
2023/10/02 12:06:58;;;;;;;704.08;638.22;;;21.80;99.90;;;;;;4882096;29;20056;-94
2023/10/02 12:09:25;;;;;;;767.47;691.78;;;21.80;99.90;;;;;;4880987;29;20408;-94
2023/10/02 12:11:51;;;;;;;709.60;643.58;;;21.80;99.90;;;;;;4880716;29;20128;-94
2023/10/02 12:14:17;;;;;;;747.65;677.97;;;21.80;99.90;;;;;;4881003;29;20469;-94
2023/10/02 12:16:43;;;;;;;818.17;735.25;;;21.80;99.90;;;;;;4880759;29;20055;-95
2023/10/02 12:19:10;;;;;;;787.90;709.85;;;21.70;99.90;;;;;;4879575;29;20052;-94
2023/10/02 12:21:37;;;;;;;780.35;704.03;;;21.70;99.90;;;;;;4877822;29;20109;-94
2023/10/02 12:24:07;;;;;;;855.10;766.83;;;21.70;99.90;;;;;;4875223;29;20109;-95
2023/10/02 12:26:33;;;;;;;779.33;700.35;;;21.70;99.90;;;;;;4877455;29;20598;-94
2023/10/02 12:29:04;;;;;;;771.03;694.55;;;21.60;99.90;;;;;;4864529;29;20045;-94
2023/10/02 12:31:36;;;;;;;732.67;661.97;;;21.60;99.90;;;;;;4877764;29;20040;-94
2023/10/02 12:34:07;;;;;;;848.38;761.20;;;21.60;99.90;;;;;;4890863;29;20049;-94
2023/10/02 12:36:33;;;;;;;867.85;781.58;;;21.50;99.90;;;;;;4877246;29;20115;-94
2023/10/02 12:38:59;;;;;;;864.63;778.67;;;21.70;99.90;;;;;;4876966;29;20131;-93
2023/10/02 12:41:27;;;;;;;792.50;713.50;;;21.70;99.90;;;;;;4877192;29;20053;-94
2023/10/02 12:43:56;;;;;;;853.00;767.38;;;21.70;99.90;;;;;;4876403;29;20135;-95
2023/10/02 12:46:25;;;;;;;786.95;709.10;;;21.70;99.90;;;;;;4876833;29;20048;-94
2023/10/02 12:48:51;;;;;;;815.17;736.30;;;21.70;99.90;;;;;;4877002;29;20123;-95
2023/10/02 12:51:17;;;;;;;790.85;712.42;;;21.70;99.90;;;;;;4882073;29;20076;-94
2023/10/02 12:53:44;;;;;;;831.45;747.85;;;21.70;99.90;;;;;;4879927;29;20048;-94
2023/10/02 12:56:20;;;;;;;771.78;696.35;;;21.60;99.90;;;;;;4881439;29;20045;-93
2023/10/02 12:58:49;;;;;;;750.67;677.88;;;21.70;99.90;;;;;;4868435;29;20097;-94
2023/10/02 13:01:16;;;;;;;765.47;691.03;;;21.80;99.90;;;;;;4879733;29;20069;-94
2023/10/02 13:03:42;;;;;;;730.58;662.28;;;21.80;99.90;;;;;;4878337;29;20037;-94
2023/10/02 13:06:12;;;;;;;746.00;678.60;;;21.80;99.90;;;;;;4873545;29;20144;-94